Main page
METAR-TAF:

METAR-TAF

Airports :

Perry Lefors Field

Pampa, Texas, United States

latitude: 35-36-46N, longitude: 100-59-46W, elevation: 3244 ft

Current weather observation

The report was made 11 minutes ago, at 17:55 UTC
Wind 14 mph from the South/Southwest with gusts up to 18 mph
Temperature 84°F
Humidity 52%
Pressure 29.99 in. Hg
Visibility: 10 miles
Scattered clouds at a height of 4800 ft
Scattered clouds at a height of 6500 ft
Scattered clouds at a height of 12000 ft

METAR: KPPA 151755Z AUTO 20012G16KT 10SM SCT048 SCT065 SCT120 29/18 A2999 RMK AO2 T02890178 10298 20223

Time: 13:06 (18:06 UTC)


TAF: missing

Weather observations and forecasts of more than 4000 airports (METAR and TAF reports).

The available stations are represented by yellow and red dots on the map.

Hover mouse over dot to see the name of the station.

Then click to see weather observations and forecasts.

To change the map : click on the green buttons with a black cross to zoom in, on the green button with a dash to zoom out, or on the green arrows for adjacent maps.


METAR-TAF: